Mist, Oregon
Current Conditions -  °F | °C
As of 12:55 PM on Friday 19 Dec 2014 (Local Time) from KKLS Reporting Station
Overcast Overcast  
Wind Chill: 50°   Ceiling: 8000
Heat Index: 50°   Visibility: 10mi
Dew Point: 39°   Wind: 13mph
Humidity: 66%   Direction: 150°SSE
Pressure: 30.03"   Gusts: NA
Location:  46.0479°N, 123.274°W
Report Text: KKLS 192055Z 15011KT 10SM FEW025 BKN080 OVC085 10/04 A3003 RMK AO1 52003
Loading
Personal Weather Stations






























Interactive Weather Map New forecast layout! Learn more

10-Day Weather Forecast

Advertisements
Track Severe Weather on mobile